< < Back
Terminal Aerodrome Forecast


Current Version              Previous Versions:   1  2  3  4  5  6  7  8  9  

Terminal Aerodrome Forecast

022
FTUS44 KMOB 012300 RRA
TAFPNS
TAF
KPNS 012356Z 0200/0224 34006KT P6SM SCT200
     FM021800 19005KT P6SM VCTS SCT050CB SCT250=

Latest METAR

782
SAUS70 KWBC 020800 RRF
MTRPNS
METAR KPNS 020753Z AUTO 36003KT 10SM CLR 23/21 A2996 RMK AO2 SLP146
T02330211


USA.gov is the U.S. government's official web portal to all federal, state and local government web resources and services.